Terminal Aerodrome Forecast
Issued by NWS

Home | Current Version | Previous Version | Text Only | Print | Product List | Glossary On
Versions: 1 2 3 4 5 6 7 8 9 10 11 12 13 14
000
FTUS45 KREV 291721
TAFMMH
TAF
KMMH 291721Z 2918/3018 20009G17KT 6SM HZ SCT070 SCT120 BKN180
     FM292000 22026G34KT 6SM HZ SCT060 BKN120 WS020/25035KT
     FM292200 26018G27KT P6SM SCT120 BKN180
     FM300200 29015G25KT P6SM FEW120 SCT180
     FM300500 32011KT P6SM SCT180=

USA.gov is the U.S. government's official web portal to all federal, state and local government web resources and services.